Glen Cove, Maine
Current Conditions -  °F | °C
As of 4:15 AM on Monday 24 Nov 2014 (Local Time) from KRKD Reporting Station
Clear Clear  
Wind Chill: 44°   Ceiling: Unl
Heat Index: 48°   Visibility: 10mi
Dew Point: 46°   Wind: 10mph
Humidity: 93%   Direction: 140°SE
Pressure: 30.05"   Gusts: NA
Location:  44.13°N, 69.09°W
Report Text: KRKD 240915Z AUTO 14009KT 10SM CLR 09/08 A3005 RMK AO1
Loading
Personal Weather Stations






























Interactive Weather Map New forecast layout! Learn more

10-Day Weather Forecast

Advertisements
Track Severe Weather on mobile